Time;durP1;ratioP1;P1;durP2;ratioP2;P2;SDS_P1;SDS_P2;PMS_P1;PMS_P2;Temp;Humidity;BMP_temperature;BMP_pressure;BME280_temperature;BME280_humidity;BME280_pressure;Samples;Min_cycle;Max_cycle;Signal;HPM_P1;HPM_P2
2023/03/02 00:01:09;;;;;;;7.63;5.35;;;;;;;;;;5076620;28;20059;-64
2023/03/02 00:03:38;;;;;;;6.88;5.18;;;;;;;;;;5094661;28;20426;-65
2023/03/02 00:06:04;;;;;;;8.88;5.57;;;;;;;;;;5094095;28;20596;-65
2023/03/02 00:08:32;;;;;;;9.15;6.18;;;;;;;;;;5094479;28;20085;-65
2023/03/02 00:10:59;;;;;;;6.70;5.10;;;;;;;;;;5094453;28;20012;-65
2023/03/02 00:13:25;;;;;;;7.72;5.30;;;;;;;;;;5094203;28;20102;-65
2023/03/02 00:15:50;;;;;;;10.48;5.45;;;;;;;;;;5094305;28;20065;-64
2023/03/02 00:18:16;;;;;;;8.68;5.70;;;;;;;;;;5094083;28;20026;-65
2023/03/02 00:20:41;;;;;;;10.00;6.22;;;;;;;;;;5075951;28;20024;-63
2023/03/02 00:23:07;;;;;;;9.10;5.78;;;;;;;;;;5093944;28;20028;-65
2023/03/02 00:25:32;;;;;;;9.02;5.60;;;;;;;;;;5093839;28;20021;-65
2023/03/02 00:27:58;;;;;;;6.68;5.03;;;;;;;;;;5094219;28;20059;-61
2023/03/02 00:30:24;;;;;;;9.55;5.60;;;;;;;;;;5094136;28;20502;-63
2023/03/02 00:32:49;;;;;;;7.63;5.60;;;;;;;;;;5093867;28;20103;-64
2023/03/02 00:35:15;;;;;;;7.07;5.22;;;;;;;;;;5093812;28;20024;-65
2023/03/02 00:37:41;;;;;;;9.75;5.78;;;;;;;;;;5093726;28;20107;-62
2023/03/02 00:40:08;;;;;;;8.05;4.95;;;;;;;;;;5075901;28;20111;-65
2023/03/02 00:42:37;;;;;;;8.32;5.70;;;;;;;;;;5093931;28;20103;-66
2023/03/02 00:45:04;;;;;;;10.00;5.82;;;;;;;;;;5093504;28;20048;-63
2023/03/02 00:47:33;;;;;;;8.45;5.63;;;;;;;;;;5093763;28;20036;-65
2023/03/02 00:49:59;;;;;;;9.75;6.07;;;;;;;;;;5093505;28;20107;-65
2023/03/02 00:52:25;;;;;;;10.05;5.97;;;;;;;;;;5075351;28;20115;-65
2023/03/02 00:54:50;;;;;;;8.93;5.70;;;;;;;;;;5093429;28;20028;-65
2023/03/02 00:57:16;;;;;;;8.45;5.53;;;;;;;;;;5093467;28;20048;-64
2023/03/02 00:59:42;;;;;;;7.97;5.90;;;;;;;;;;5093374;28;20033;-65
2023/03/02 01:02:07;;;;;;;7.88;5.55;;;;;;;;;;5093313;28;20024;-65
2023/03/02 01:04:36;;;;;;;9.60;5.70;;;;;;;;;;5093301;28;20063;-65
2023/03/02 01:07:05;;;;;;;9.35;5.38;;;;;;;;;;5093164;28;20718;-64
2023/03/02 01:09:31;;;;;;;9.25;5.50;;;;;;;;;;5093103;28;20039;-64
2023/03/02 01:11:56;;;;;;;9.68;5.53;;;;;;;;;;5093077;28;20035;-65
2023/03/02 01:14:22;;;;;;;7.55;4.95;;;;;;;;;;5093379;28;20024;-64
2023/03/02 01:16:48;;;;;;;8.32;5.15;;;;;;;;;;5092986;28;20024;-64
2023/03/02 01:19:14;;;;;;;8.23;5.70;;;;;;;;;;5092956;28;20046;-65
2023/03/02 01:21:40;;;;;;;7.03;4.93;;;;;;;;;;5092979;28;20108;-64
2023/03/02 01:24:06;;;;;;;8.70;6.05;;;;;;;;;;5092833;28;20095;-65
2023/03/02 01:26:32;;;;;;;7.30;5.28;;;;;;;;;;5092827;28;20031;-63
2023/03/02 01:28:57;;;;;;;8.23;5.05;;;;;;;;;;5092835;28;20028;-61
2023/03/02 01:31:25;;;;;;;9.48;5.18;;;;;;;;;;5093016;28;20046;-61
2023/03/02 01:33:51;;;;;;;9.15;5.63;;;;;;;;;;5092807;28;20031;-63
2023/03/02 01:36:16;;;;;;;7.57;5.20;;;;;;;;;;5092666;28;20033;-64
2023/03/02 01:38:42;;;;;;;8.07;4.93;;;;;;;;;;5092668;28;20043;-63
2023/03/02 01:41:08;;;;;;;8.20;5.70;;;;;;;;;;5092661;28;20476;-64
2023/03/02 01:43:34;;;;;;;7.93;5.65;;;;;;;;;;5092397;28;20032;-64
2023/03/02 01:46:27;;;;;;;7.50;5.57;;;;;;;;;;5092351;28;20096;-63
2023/03/02 01:49:00;;;;;;;7.57;5.63;;;;;;;;;;5091989;28;20044;-65
2023/03/02 01:51:29;;;;;;;9.57;5.90;;;;;;;;;;5092812;28;20433;-65
2023/03/02 01:53:59;;;;;;;7.43;5.35;;;;;;;;;;5092516;28;20027;-64
2023/03/02 01:56:29;;;;;;;8.38;5.35;;;;;;;;;;5092590;28;20028;-60
2023/03/02 01:59:00;;;;;;;;;;;;;;;;;;5092864;28;20039;-61
2023/03/02 02:01:31;;;;;;;7.35;4.85;;;;;;;;;;5092432;28;19919;-63
2023/03/02 02:03:56;;;;;;;7.30;5.20;;;;;;;;;;5074386;28;20020;-63
2023/03/02 02:06:38;;;;;;;7.63;5.32;;;;;;;;;;5092548;28;20362;-64
2023/03/02 02:09:08;;;;;;;9.18;5.72;;;;;;;;;;5092661;28;20024;-64
2023/03/02 02:11:33;;;;;;;8.52;5.63;;;;;;;;;;5096052;28;20020;-63
2023/03/02 02:14:00;;;;;;;7.72;5.00;;;;;;;;;;5096516;28;20042;-64
2023/03/02 02:16:27;;;;;;;6.80;5.20;;;;;;;;;;5096425;28;20031;-63
2023/03/02 02:18:54;;;;;;;9.00;5.40;;;;;;;;;;5096485;28;20035;-65
2023/03/02 02:21:21;;;;;;;8.45;5.38;;;;;;;;;;5096649;28;20016;-65
2023/03/02 02:24:15;;;;;;;8.20;4.75;;;;;;;;;;5096525;28;20024;-64
2023/03/02 02:26:48;;;;;;;7.55;5.40;;;;;;;;;;5096306;28;20035;-65
2023/03/02 02:29:21;;;;;;;8.75;5.57;;;;;;;;;;5096255;28;20447;-65
2023/03/02 02:32:11;;;;;;;6.82;5.22;;;;;;;;;;5096172;28;20031;-65
2023/03/02 02:34:50;;;;;;;7.50;5.38;;;;;;;;;;5096184;28;20090;-65
2023/03/02 02:37:23;;;;;;;10.45;5.25;;;;;;;;;;5096166;28;20119;-65
2023/03/02 02:39:50;;;;;;;5.85;4.60;;;;;;;;;;5096054;28;20028;-63
2023/03/02 02:42:25;;;;;;;11.85;5.43;;;;;;;;;;5096262;28;20051;-65
2023/03/02 02:44:55;;;;;;;7.85;5.47;;;;;;;;;;5095732;28;20396;-65
2023/03/02 02:47:22;;;;;;;7.60;5.28;;;;;;;;;;5096093;28;20424;-65
2023/03/02 02:49:51;;;;;;;6.90;4.93;;;;;;;;;;5095777;28;20114;-65
2023/03/02 02:52:20;;;;;;;8.13;5.07;;;;;;;;;;5096108;28;20024;-64
2023/03/02 02:54:48;;;;;;;9.38;5.28;;;;;;;;;;5095713;28;20047;-65
2023/03/02 02:57:16;;;;;;;7.07;4.95;;;;;;;;;;5096019;28;20045;-65
2023/03/02 02:59:48;;;;;;;9.27;5.25;;;;;;;;;;5095516;28;20028;-65
2023/03/02 03:02:22;;;;;;;7.82;4.82;;;;;;;;;;5095916;28;20028;-65
2023/03/02 03:04:48;;;;;;;6.90;5.00;;;;;;;;;;5095450;28;20020;-64
2023/03/02 03:07:22;;;;;;;8.45;5.47;;;;;;;;;;5095426;28;20552;-65
2023/03/02 03:10:12;;;;;;;6.22;4.97;;;;;;;;;;5095293;28;20032;-65
2023/03/02 03:12:38;;;;;;;8.25;5.13;;;;;;;;;;5084329;28;20043;-65
2023/03/02 03:15:06;;;;;;;8.25;5.43;;;;;;;;;;5095257;28;20059;-65
2023/03/02 03:17:32;;;;;;;6.32;4.80;;;;;;;;;;5095360;28;20031;-66
2023/03/02 03:20:04;;;;;;;6.78;5.05;;;;;;;;;;5095517;28;20023;-65
2023/03/02 03:22:33;;;;;;;6.80;4.75;;;;;;;;;;5095006;28;20532;-65
2023/03/02 03:24:59;;;;;;;7.32;5.30;;;;;;;;;;5095444;28;20028;-65
2023/03/02 03:27:24;;;;;;;7.50;4.90;;;;;;;;;;5094994;28;20380;-64
2023/03/02 03:29:50;;;;;;;6.80;4.65;;;;;;;;;;5095066;28;20020;-65
2023/03/02 03:32:16;;;;;;;7.10;5.03;;;;;;;;;;5095054;28;20028;-64
2023/03/02 03:34:43;;;;;;;7.78;5.18;;;;;;;;;;5077236;28;20411;-65
2023/03/02 03:37:12;;;;;;;8.65;5.95;;;;;;;;;;5094903;28;20038;-64
2023/03/02 03:39:37;;;;;;;6.25;4.97;;;;;;;;;;5094851;28;20021;-64
2023/03/02 03:42:04;;;;;;;7.70;5.35;;;;;;;;;;5094837;28;20027;-65
2023/03/02 03:44:30;;;;;;;8.23;5.35;;;;;;;;;;5094580;28;20048;-65
2023/03/02 03:46:55;;;;;;;5.50;4.47;;;;;;;;;;5094643;28;20028;-65
2023/03/02 03:49:21;;;;;;;7.03;5.15;;;;;;;;;;5095051;28;20039;-65
2023/03/02 03:51:47;;;;;;;7.00;5.07;;;;;;;;;;5076587;28;20460;-64
2023/03/02 03:54:12;;;;;;;6.82;5.25;;;;;;;;;;5094595;28;20028;-62
2023/03/02 03:56:43;;;;;;;7.20;5.03;;;;;;;;;;5094879;28;20044;-64
2023/03/02 03:59:12;;;;;;;6.38;4.75;;;;;;;;;;5094454;28;20020;-65
2023/03/02 04:01:48;;;;;;;7.85;4.63;;;;;;;;;;5094584;28;20059;-64
2023/03/02 04:04:17;;;;;;;7.07;5.07;;;;;;;;;;5094446;28;20042;-65
2023/03/02 04:06:43;;;;;;;9.18;5.10;;;;;;;;;;5094336;28;20035;-65
2023/03/02 04:09:09;;;;;;;8.60;4.97;;;;;;;;;;5094288;28;20024;-65
2023/03/02 04:11:37;;;;;;;7.28;5.25;;;;;;;;;;5094286;28;20024;-65
2023/03/02 04:14:04;;;;;;;7.45;5.53;;;;;;;;;;5094182;28;20020;-65
2023/03/02 04:16:31;;;;;;;7.13;4.88;;;;;;;;;;5094209;28;20028;-64
2023/03/02 04:18:57;;;;;;;8.25;5.40;;;;;;;;;;5094120;28;20024;-63
2023/03/02 04:21:23;;;;;;;7.63;5.38;;;;;;;;;;5094052;28;20361;-65
2023/03/02 04:23:48;;;;;;;8.35;5.05;;;;;;;;;;5094019;28;20026;-65
2023/03/02 04:26:14;;;;;;;8.55;4.95;;;;;;;;;;5093874;28;20073;-65
2023/03/02 04:28:39;;;;;;;7.93;5.25;;;;;;;;;;5075888;28;20027;-64
2023/03/02 04:31:05;;;;;;;7.22;5.35;;;;;;;;;;5093859;28;20016;-65
2023/03/02 04:33:30;;;;;;;8.23;5.47;;;;;;;;;;5093106;28;20518;-62
2023/03/02 04:35:56;;;;;;;7.03;5.20;;;;;;;;;;5093712;28;20039;-64
2023/03/02 04:38:22;;;;;;;7.18;4.85;;;;;;;;;;5093912;28;20035;-64
2023/03/02 04:40:48;;;;;;;6.55;4.90;;;;;;;;;;5093664;28;20476;-65
2023/03/02 04:43:13;;;;;;;6.18;5.13;;;;;;;;;;5093826;28;20032;-65
2023/03/02 04:45:39;;;;;;;7.20;5.00;;;;;;;;;;5093514;28;20119;-65
2023/03/02 04:48:06;;;;;;;5.97;4.90;;;;;;;;;;5093972;28;20035;-65
2023/03/02 04:50:32;;;;;;;6.97;4.93;;;;;;;;;;5093806;28;20021;-65
2023/03/02 04:52:58;;;;;;;6.18;4.80;;;;;;;;;;5093505;28;20111;-64
2023/03/02 04:55:25;;;;;;;8.02;5.50;;;;;;;;;;5093534;28;20491;-65
2023/03/02 04:57:50;;;;;;;8.55;4.75;;;;;;;;;;5093500;28;20060;-64
2023/03/02 05:00:18;;;;;;;5.57;4.47;;;;;;;;;;5093358;28;20024;-64
2023/03/02 05:02:44;;;;;;;7.88;5.10;;;;;;;;;;5093373;28;20476;-63
2023/03/02 05:05:21;;;;;;;6.53;4.93;;;;;;;;;;5093325;28;20028;-63
2023/03/02 05:07:47;;;;;;;7.22;5.13;;;;;;;;;;5093165;28;20031;-64
2023/03/02 05:10:14;;;;;;;8.23;5.55;;;;;;;;;;5093104;28;20027;-66
2023/03/02 05:13:01;;;;;;;8.07;4.93;;;;;;;;;;5093424;28;20028;-65
2023/03/02 05:15:33;;;;;;;6.57;4.97;;;;;;;;;;5093411;28;20028;-64
2023/03/02 05:17:59;;;;;;;7.53;5.20;;;;;;;;;;5092995;28;20020;-67
2023/03/02 05:20:28;;;;;;;7.43;4.93;;;;;;;;;;5092831;28;20115;-66
2023/03/02 05:22:59;;;;;;;8.07;5.28;;;;;;;;;;5075725;28;20028;-64
2023/03/02 05:25:26;;;;;;;7.38;4.95;;;;;;;;;;5092826;28;20024;-65
2023/03/02 05:27:52;;;;;;;5.95;4.57;;;;;;;;;;5092813;28;20104;-64
2023/03/02 05:30:19;;;;;;;7.05;5.15;;;;;;;;;;5093074;28;20111;-65
2023/03/02 05:32:45;;;;;;;6.90;5.10;;;;;;;;;;5092808;28;20049;-66
2023/03/02 05:35:11;;;;;;;8.25;4.88;;;;;;;;;;5092805;28;20049;-65
2023/03/02 05:37:40;;;;;;;7.13;4.93;;;;;;;;;;5092914;28;20085;-65
2023/03/02 05:40:11;;;;;;;6.00;4.63;;;;;;;;;;5092672;28;20028;-66
2023/03/02 05:42:36;;;;;;;7.60;5.07;;;;;;;;;;5092903;28;20024;-64
2023/03/02 05:45:06;;;;;;;6.57;4.63;;;;;;;;;;5091473;28;20048;-65
2023/03/02 05:47:32;;;;;;;8.45;4.95;;;;;;;;;;5092408;28;20020;-65
2023/03/02 05:49:58;;;;;;;6.50;5.28;;;;;;;;;;5092763;28;20393;-64
2023/03/02 05:52:24;;;;;;;7.55;5.10;;;;;;;;;;5092520;28;20365;-66
2023/03/02 05:54:50;;;;;;;7.50;5.10;;;;;;;;;;5092442;28;20542;-64
2023/03/02 05:57:15;;;;;;;7.57;5.03;;;;;;;;;;5092280;28;20110;-65
2023/03/02 05:59:41;;;;;;;7.60;5.40;;;;;;;;;;5092329;28;20074;-63
2023/03/02 06:02:06;;;;;;;5.97;4.63;;;;;;;;;;5092530;28;20035;-63
2023/03/02 06:04:32;;;;;;;7.80;5.20;;;;;;;;;;5092135;28;20492;-62
2023/03/02 06:06:57;;;;;;;6.45;4.85;;;;;;;;;;5092405;28;20039;-62
2023/03/02 06:09:23;;;;;;;8.00;5.28;;;;;;;;;;5074560;28;20093;-64
2023/03/02 06:11:49;;;;;;;7.50;5.13;;;;;;;;;;5092512;28;20097;-63
2023/03/02 06:14:14;;;;;;;7.35;5.15;;;;;;;;;;5092473;28;20459;-63
2023/03/02 06:16:40;;;;;;;8.55;4.88;;;;;;;;;;5092040;28;20038;-63
2023/03/02 06:19:05;;;;;;;6.70;5.25;;;;;;;;;;5092113;28;20027;-64
2023/03/02 06:21:31;;;;;;;7.65;4.72;;;;;;;;;;5092045;28;20028;-63
2023/03/02 06:23:56;;;;;;;7.70;5.05;;;;;;;;;;5092056;28;20112;-61
2023/03/02 06:26:22;;;;;;;6.80;5.03;;;;;;;;;;5091971;28;20078;-63
2023/03/02 06:28:47;;;;;;;8.00;5.15;;;;;;;;;;5091979;28;20130;-62
2023/03/02 06:31:13;;;;;;;7.18;5.10;;;;;;;;;;5092232;28;20099;-63
2023/03/02 06:33:38;;;;;;;6.75;5.20;;;;;;;;;;5091213;28;20061;-60
2023/03/02 06:36:04;;;;;;;6.82;4.88;;;;;;;;;;5091335;28;20032;-61
2023/03/02 06:38:30;;;;;;;7.25;5.20;;;;;;;;;;5091619;28;20031;-62
2023/03/02 06:40:56;;;;;;;5.57;4.93;;;;;;;;;;5091194;28;20024;-61
2023/03/02 06:43:21;;;;;;;6.72;4.93;;;;;;;;;;5091174;28;20596;-64
2023/03/02 06:45:49;;;;;;;8.23;5.22;;;;;;;;;;5091211;28;20044;-62
2023/03/02 06:48:15;;;;;;;6.38;4.43;;;;;;;;;;5091738;28;20111;-63
2023/03/02 06:50:41;;;;;;;7.43;5.10;;;;;;;;;;5091848;28;20052;-64
2023/03/02 06:53:07;;;;;;;6.43;4.65;;;;;;;;;;5092148;28;20080;-63
2023/03/02 06:55:32;;;;;;;7.18;5.43;;;;;;;;;;5091847;28;20471;-62
2023/03/02 06:57:58;;;;;;;7.97;4.90;;;;;;;;;;5095287;28;20028;-61
2023/03/02 07:00:26;;;;;;;6.20;4.80;;;;;;;;;;5077475;28;20533;-64
2023/03/02 07:02:53;;;;;;;7.57;4.70;;;;;;;;;;5093102;28;20465;-63
2023/03/02 07:05:19;;;;;;;6.95;4.82;;;;;;;;;;5089357;28;20036;-62
2023/03/02 07:07:44;;;;;;;5.43;4.43;;;;;;;;;;5089605;28;20032;-63
2023/03/02 07:10:12;;;;;;;7.10;4.78;;;;;;;;;;5083852;28;20024;-64
2023/03/02 07:12:38;;;;;;;8.23;5.20;;;;;;;;;;5092443;28;20549;-63
2023/03/02 07:15:09;;;;;;;8.02;5.28;;;;;;;;;;5094079;28;20016;-62
2023/03/02 07:17:36;;;;;;;6.70;4.85;;;;;;;;;;5092953;28;20107;-63
2023/03/02 07:20:04;;;;;;;8.35;5.30;;;;;;;;;;5092618;28;20032;-63
2023/03/02 07:22:29;;;;;;;6.80;5.15;;;;;;;;;;5091293;28;20106;-63
2023/03/02 07:24:55;;;;;;;6.60;5.18;;;;;;;;;;5092613;28;20509;-64
2023/03/02 07:27:21;;;;;;;7.15;5.25;;;;;;;;;;5095308;28;20055;-61
2023/03/02 07:29:46;;;;;;;6.82;5.10;;;;;;;;;;5088866;28;20392;-61
2023/03/02 07:32:12;;;;;;;7.85;4.97;;;;;;;;;;5095325;28;20069;-63
2023/03/02 07:34:37;;;;;;;7.97;5.28;;;;;;;;;;5095156;28;20468;-62
2023/03/02 07:37:03;;;;;;;8.07;5.30;;;;;;;;;;5094868;28;20027;-62
2023/03/02 07:39:29;;;;;;;6.30;5.00;;;;;;;;;;5095137;28;20032;-61
2023/03/02 07:41:59;;;;;;;6.30;4.85;;;;;;;;;;5094739;28;20077;-60
2023/03/02 07:44:25;;;;;;;7.05;5.15;;;;;;;;;;5094502;28;20072;-63
2023/03/02 07:46:51;;;;;;;9.32;6.00;;;;;;;;;;5094761;28;20071;-62
2023/03/02 07:49:16;;;;;;;8.68;5.38;;;;;;;;;;5076458;28;20031;-61
2023/03/02 07:51:42;;;;;;;9.90;5.95;;;;;;;;;;5094686;28;20020;-63
2023/03/02 07:54:08;;;;;;;7.68;5.28;;;;;;;;;;5094704;28;20051;-61
2023/03/02 07:56:34;;;;;;;5.57;4.82;;;;;;;;;;5076423;28;20449;-62
2023/03/02 07:59:00;;;;;;;8.45;5.20;;;;;;;;;;5092806;28;20471;-63
2023/03/02 08:01:26;;;;;;;7.15;5.25;;;;;;;;;;5080066;28;20032;-61
2023/03/02 08:03:51;;;;;;;7.95;5.63;;;;;;;;;;5074255;28;20439;-63
2023/03/02 08:06:17;;;;;;;7.78;5.35;;;;;;;;;;5074051;28;20035;-62
2023/03/02 08:08:43;;;;;;;6.70;5.15;;;;;;;;;;5073317;28;20069;-62
2023/03/02 08:11:14;;;;;;;8.32;5.60;;;;;;;;;;5074018;28;20025;-62
2023/03/02 08:13:40;;;;;;;8.50;5.32;;;;;;;;;;5073953;28;20064;-61
2023/03/02 08:16:08;;;;;;;8.32;5.47;;;;;;;;;;5073939;28;20542;-63
2023/03/02 08:18:34;;;;;;;6.85;5.13;;;;;;;;;;5074016;28;20085;-61
2023/03/02 08:21:00;;;;;;;8.40;5.00;;;;;;;;;;5055878;28;20024;-61
2023/03/02 08:23:26;;;;;;;7.05;5.30;;;;;;;;;;5074003;28;20024;-62
2023/03/02 08:25:53;;;;;;;8.55;5.28;;;;;;;;;;5073813;28;20107;-61
2023/03/02 08:28:20;;;;;;;8.23;5.15;;;;;;;;;;5073749;28;20035;-63
2023/03/02 08:30:55;;;;;;;9.07;5.57;;;;;;;;;;5074004;28;20380;-61
2023/03/02 08:33:20;;;;;;;6.43;4.90;;;;;;;;;;5073607;28;20487;-60
2023/03/02 08:36:00;;;;;;;12.93;5.63;;;;;;;;;;5073922;28;20032;-62
2023/03/02 08:38:26;;;;;;;7.95;6.07;;;;;;;;;;5090870;28;20047;-61
2023/03/02 08:40:52;;;;;;;7.45;5.38;;;;;;;;;;5074771;28;20051;-61
2023/03/02 08:43:19;;;;;;;7.80;5.47;;;;;;;;;;5093324;28;20606;-64
2023/03/02 08:45:48;;;;;;;6.40;5.15;;;;;;;;;;5094519;28;20488;-62
2023/03/02 08:48:14;;;;;;;6.50;5.15;;;;;;;;;;5076233;28;20056;-62
2023/03/02 08:50:40;;;;;;;8.80;5.30;;;;;;;;;;5075593;28;20043;-62
2023/03/02 08:53:05;;;;;;;6.28;4.93;;;;;;;;;;5090076;28;20020;-63
2023/03/02 08:55:35;;;;;;;6.47;4.93;;;;;;;;;;5089304;28;20056;-62
2023/03/02 08:58:01;;;;;;;7.82;5.30;;;;;;;;;;5090544;28;20074;-62
2023/03/02 09:00:27;;;;;;;7.07;5.10;;;;;;;;;;5091182;28;20029;-62
2023/03/02 09:02:52;;;;;;;8.85;5.40;;;;;;;;;;5090128;28;20016;-61
2023/03/02 09:05:18;;;;;;;7.90;5.50;;;;;;;;;;5093739;28;20502;-62
2023/03/02 09:07:43;;;;;;;8.00;5.35;;;;;;;;;;5093433;28;20383;-62
2023/03/02 09:10:09;;;;;;;8.63;5.88;;;;;;;;;;5093164;28;20028;-62
2023/03/02 09:12:35;;;;;;;9.57;5.40;;;;;;;;;;5069470;28;20105;-62
2023/03/02 09:15:01;;;;;;;8.10;5.43;;;;;;;;;;5091956;28;20058;-62
2023/03/02 09:17:26;;;;;;;7.18;4.95;;;;;;;;;;5074974;28;20028;-62
2023/03/02 09:19:52;;;;;;;6.57;5.15;;;;;;;;;;5093497;28;20050;-62
2023/03/02 09:22:18;;;;;;;9.00;5.72;;;;;;;;;;5093230;28;20035;-63
2023/03/02 09:24:43;;;;;;;5.85;4.68;;;;;;;;;;5092871;28;20102;-62
2023/03/02 09:27:09;;;;;;;6.47;4.88;;;;;;;;;;5093420;28;20055;-61
2023/03/02 09:29:34;;;;;;;8.55;4.97;;;;;;;;;;5087280;28;20030;-61
2023/03/02 09:32:00;;;;;;;7.32;5.40;;;;;;;;;;5075000;28;20027;-62
2023/03/02 09:34:26;;;;;;;6.38;5.20;;;;;;;;;;5089551;28;20024;-62
2023/03/02 09:36:51;;;;;;;8.48;5.35;;;;;;;;;;5088388;28;20032;-63
2023/03/02 09:39:18;;;;;;;7.95;5.22;;;;;;;;;;5074373;28;20135;-62
2023/03/02 09:42:03;;;;;;;7.20;5.78;;;;;;;;;;5092730;28;20020;-62
2023/03/02 09:44:39;;;;;;;6.63;5.30;;;;;;;;;;5092656;28;20124;-63
2023/03/02 09:47:28;;;;;;;6.82;4.70;;;;;;;;;;5092762;28;20357;-63
2023/03/02 09:50:10;;;;;;;7.03;5.50;;;;;;;;;;5093194;28;20111;-63
2023/03/02 09:52:44;;;;;;;6.47;5.00;;;;;;;;;;5074484;28;20078;-62
2023/03/02 09:55:18;;;;;;;5.95;4.85;;;;;;;;;;5090603;28;20313;-62
2023/03/02 09:57:45;;;;;;;7.38;5.28;;;;;;;;;;5093470;28;20529;-63
2023/03/02 10:00:26;;;;;;;7.40;5.10;;;;;;;;;;5058017;28;20134;-62
2023/03/02 10:03:06;;;;;;;6.80;5.22;;;;;;;;;;5091898;28;20036;-62
2023/03/02 10:05:44;;;;;;;6.72;5.00;;;;;;;;;;5092127;28;20037;-62
2023/03/02 10:08:33;;;;;;;9.38;5.18;;;;;;;;;;5090660;28;20036;-62
2023/03/02 10:11:19;;;;;;;6.60;4.93;;;;;;;;;;5085458;28;20438;-62
2023/03/02 10:14:04;;;;;;;7.38;5.53;;;;;;;;;;5083747;28;20371;-62
2023/03/02 10:16:47;;;;;;;6.72;5.18;;;;;;;;;;5091789;28;20161;-62
2023/03/02 10:19:32;;;;;;;8.20;5.20;;;;;;;;;;5092520;28;20024;-62
2023/03/02 10:22:07;;;;;;;7.90;5.07;;;;;;;;;;5088562;28;20067;-62
2023/03/02 10:25:08;;;;;;;7.35;5.15;;;;;;;;;;5072388;28;20035;-62
2023/03/02 10:27:42;;;;;;;7.15;4.72;;;;;;;;;;5076571;28;20028;-62
2023/03/02 10:30:29;;;;;;;8.13;5.05;;;;;;;;;;5091518;28;20036;-62
2023/03/02 10:32:59;;;;;;;7.00;5.13;;;;;;;;;;5087031;28;20028;-62
2023/03/02 10:35:27;;;;;;;7.70;5.25;;;;;;;;;;5075707;28;20063;-63
2023/03/02 10:38:15;;;;;;;6.53;5.00;;;;;;;;;;5075861;28;20032;-62
2023/03/02 10:41:09;;;;;;;6.63;5.18;;;;;;;;;;5077955;28;20035;-63
2023/03/02 10:43:41;;;;;;;7.20;4.80;;;;;;;;;;5089399;28;20040;-63
2023/03/02 10:46:09;;;;;;;8.63;5.10;;;;;;;;;;5054080;28;20094;-62
2023/03/02 10:48:56;;;;;;;6.10;4.82;;;;;;;;;;5053992;28;20051;-62
2023/03/02 10:51:34;;;;;;;7.32;5.03;;;;;;;;;;5046759;28;20120;-62
2023/03/02 10:54:11;;;;;;;7.70;4.82;;;;;;;;;;5034308;28;20033;-62
2023/03/02 10:56:40;;;;;;;6.03;5.05;;;;;;;;;;5032654;28;20036;-62
2023/03/02 10:59:45;;;;;;;10.73;5.00;;;;;;;;;;5033943;28;20025;-63
2023/03/02 11:02:24;;;;;;;9.35;5.28;;;;;;;;;;5033944;28;20091;-62
2023/03/02 11:04:55;;;;;;;7.05;5.35;;;;;;;;;;5033866;28;20068;-62
2023/03/02 11:07:23;;;;;;;6.72;5.10;;;;;;;;;;5033790;28;20068;-63
2023/03/02 11:10:18;;;;;;;8.65;4.80;;;;;;;;;;5033698;28;20509;-62
2023/03/02 11:12:47;;;;;;;7.75;5.28;;;;;;;;;;5032636;28;20049;-62
2023/03/02 11:15:30;;;;;;;6.45;4.65;;;;;;;;;;5033640;28;20045;-62
2023/03/02 11:18:18;;;;;;;6.50;5.10;;;;;;;;;;5033600;28;20136;-62
2023/03/02 11:20:48;;;;;;;6.35;4.57;;;;;;;;;;5033519;28;20056;-62
2023/03/02 11:23:14;;;;;;;8.45;4.93;;;;;;;;;;5033813;28;20041;-62
2023/03/02 11:25:47;;;;;;;6.20;4.70;;;;;;;;;;5033418;28;20386;-62
2023/03/02 11:28:37;;;;;;;6.47;4.90;;;;;;;;;;5033447;28;20029;-62
2023/03/02 11:31:09;;;;;;;5.28;4.60;;;;;;;;;;5033577;28;20421;-62
2023/03/02 11:33:58;;;;;;;5.90;4.57;;;;;;;;;;5033320;28;20057;-62
2023/03/02 11:36:43;;;;;;;7.32;4.82;;;;;;;;;;5033701;28;20083;-62
2023/03/02 11:39:16;;;;;;;7.05;5.10;;;;;;;;;;5033250;28;20039;-62
2023/03/02 11:41:42;;;;;;;5.10;4.43;;;;;;;;;;5033174;28;20458;-62
2023/03/02 11:44:19;;;;;;;6.53;5.03;;;;;;;;;;5041896;28;20076;-62
2023/03/02 11:46:50;;;;;;;5.53;4.60;;;;;;;;;;5073194;28;20032;-62
2023/03/02 11:49:24;;;;;;;6.53;5.30;;;;;;;;;;5073325;28;20206;-62
2023/03/02 11:51:59;;;;;;;5.97;4.47;;;;;;;;;;5072934;28;20040;-62
2023/03/02 11:54:42;;;;;;;9.77;4.70;;;;;;;;;;5072795;28;20040;-61
2023/03/02 11:57:27;;;;;;;7.45;4.72;;;;;;;;;;5072913;28;20115;-61
2023/03/02 11:59:54;;;;;;;6.65;4.57;;;;;;;;;;5072845;28;20440;-61
2023/03/02 12:02:21;;;;;;;6.40;5.18;;;;;;;;;;5072742;28;20542;-62
2023/03/02 12:04:47;;;;;;;6.15;4.47;;;;;;;;;;5072906;28;20073;-62
2023/03/02 12:07:21;;;;;;;5.55;4.63;;;;;;;;;;5073069;28;20035;-62
2023/03/02 12:10:22;;;;;;;6.75;4.95;;;;;;;;;;5089984;28;20028;-61
2023/03/02 12:13:16;;;;;;;6.47;4.95;;;;;;;;;;5074459;28;20154;-62
2023/03/02 12:15:55;;;;;;;6.25;4.88;;;;;;;;;;5092969;28;20039;-62
2023/03/02 12:18:21;;;;;;;6.57;4.47;;;;;;;;;;5092683;28;20514;-61
2023/03/02 12:21:06;;;;;;;5.53;4.53;;;;;;;;;;5092417;28;20040;-62
2023/03/02 12:24:02;;;;;;;6.47;4.85;;;;;;;;;;5092483;28;20070;-61
2023/03/02 12:26:35;;;;;;;5.88;4.80;;;;;;;;;;5071909;28;20044;-62
2023/03/02 12:29:05;;;;;;;7.70;4.85;;;;;;;;;;5092341;28;20039;-62
2023/03/02 12:31:52;;;;;;;5.15;4.50;;;;;;;;;;5092338;28;20042;-61
2023/03/02 12:34:25;;;;;;;6.03;4.78;;;;;;;;;;5074150;28;20035;-61
2023/03/02 12:36:56;;;;;;;7.47;4.60;;;;;;;;;;5074241;28;20074;-61
2023/03/02 12:39:45;;;;;;;5.32;4.53;;;;;;;;;;5092242;28;20164;-61
2023/03/02 12:42:41;;;;;;;5.47;4.70;;;;;;;;;;5077156;28;20036;-62
2023/03/02 12:45:25;;;;;;;5.50;4.13;;;;;;;;;;5071443;28;20052;-62
2023/03/02 12:48:23;;;;;;;6.28;4.95;;;;;;;;;;5071561;28;20029;-61
2023/03/02 12:50:50;;;;;;;5.72;4.80;;;;;;;;;;5068579;28;20469;-61
2023/03/02 12:53:18;;;;;;;6.57;4.50;;;;;;;;;;5071637;28;20161;-62
2023/03/02 12:55:44;;;;;;;5.93;4.50;;;;;;;;;;5074031;28;20093;-62
2023/03/02 12:58:31;;;;;;;6.05;4.07;;;;;;;;;;5089919;28;20032;-62
2023/03/02 13:01:01;;;;;;;6.00;4.68;;;;;;;;;;5091876;28;20023;-61
2023/03/02 13:03:29;;;;;;;6.93;4.90;;;;;;;;;;5091737;28;20141;-62
2023/03/02 13:06:12;;;;;;;8.40;5.20;;;;;;;;;;5091820;28;20156;-62
2023/03/02 13:08:37;;;;;;;5.78;4.60;;;;;;;;;;5091860;28;20365;-61
2023/03/02 13:11:03;;;;;;;5.55;4.55;;;;;;;;;;5091808;28;20049;-62
2023/03/02 13:13:42;;;;;;;6.72;4.82;;;;;;;;;;5091521;28;20500;-62
2023/03/02 13:16:26;;;;;;;6.43;4.70;;;;;;;;;;5091526;28;20127;-61
2023/03/02 13:18:58;;;;;;;10.40;5.13;;;;;;;;;;5089495;28;20446;-61
2023/03/02 13:21:34;;;;;;;9.85;4.63;;;;;;;;;;5091463;28;20035;-62
2023/03/02 13:24:00;;;;;;;6.78;5.05;;;;;;;;;;5088498;28;20469;-61
2023/03/02 13:26:31;;;;;;;8.38;4.97;;;;;;;;;;5091229;28;20495;-62
2023/03/02 13:29:13;;;;;;;7.55;4.65;;;;;;;;;;5091172;28;20032;-62
2023/03/02 13:31:39;;;;;;;7.03;4.60;;;;;;;;;;5091138;28;20035;-61
2023/03/02 13:34:05;;;;;;;7.63;4.65;;;;;;;;;;5091219;28;20032;-62
2023/03/02 13:36:37;;;;;;;8.05;5.32;;;;;;;;;;5089897;28;20024;-62
2023/03/02 13:39:06;;;;;;;7.03;4.95;;;;;;;;;;5084858;28;20485;-62
2023/03/02 13:41:34;;;;;;;8.38;4.80;;;;;;;;;;5086428;28;20115;-62
2023/03/02 13:44:18;;;;;;;6.43;4.75;;;;;;;;;;5080820;28;20040;-60
2023/03/02 13:46:44;;;;;;;5.35;4.13;;;;;;;;;;5087059;28;20035;-62
2023/03/02 13:49:10;;;;;;;6.43;4.72;;;;;;;;;;5089580;28;20038;-62
2023/03/02 13:51:44;;;;;;;6.93;4.20;;;;;;;;;;5091086;28;20099;-61
2023/03/02 13:54:18;;;;;;;5.72;4.72;;;;;;;;;;5090919;28;20036;-61
2023/03/02 13:56:44;;;;;;;7.95;4.93;;;;;;;;;;5090015;28;20032;-61
2023/03/02 13:59:16;;;;;;;6.57;4.35;;;;;;;;;;5088467;28;20561;-61
2023/03/02 14:01:45;;;;;;;7.15;4.65;;;;;;;;;;5087351;28;20420;-61
2023/03/02 14:04:16;;;;;;;7.20;4.47;;;;;;;;;;5088160;28;20036;-61
2023/03/02 14:06:43;;;;;;;5.45;4.40;;;;;;;;;;5087934;28;20024;-61
2023/03/02 14:09:09;;;;;;;6.45;4.15;;;;;;;;;;5090809;28;20040;-63
2023/03/02 14:11:40;;;;;;;5.93;4.50;;;;;;;;;;5090845;28;20510;-61
2023/03/02 14:14:10;;;;;;;6.88;4.78;;;;;;;;;;5090576;28;20043;-61
2023/03/02 14:16:36;;;;;;;;;;;;;;;;;;5091287;28;20032;-61
2023/03/02 14:19:02;;;;;;;5.78;4.25;;;;;;;;;;5090853;28;19912;-61
2023/03/02 14:21:28;;;;;;;5.75;4.18;;;;;;;;;;5072665;28;20109;-60
2023/03/02 14:23:54;;;;;;;5.53;4.53;;;;;;;;;;5088745;28;20619;-63
2023/03/02 14:26:33;;;;;;;16.48;4.95;;;;;;;;;;5087032;28;20047;-62
2023/03/02 14:29:09;;;;;;;8.65;4.40;;;;;;;;;;5085888;28;20129;-62
2023/03/02 14:31:34;;;;;;;7.25;4.68;;;;;;;;;;5072483;28;20028;-61
2023/03/02 14:34:00;;;;;;;12.63;4.95;;;;;;;;;;5072526;28;20032;-61
2023/03/02 14:36:32;;;;;;;5.78;4.38;;;;;;;;;;5088921;28;20035;-63
2023/03/02 14:39:01;;;;;;;10.05;5.10;;;;;;;;;;5090255;28;20025;-61
2023/03/02 14:41:27;;;;;;;9.60;4.88;;;;;;;;;;5089286;28;20039;-63
2023/03/02 14:43:53;;;;;;;6.43;4.72;;;;;;;;;;5087133;28;20031;-63
2023/03/02 14:46:18;;;;;;;7.50;4.40;;;;;;;;;;5088090;28;20032;-63
2023/03/02 14:48:44;;;;;;;7.60;4.53;;;;;;;;;;5086779;28;20024;-62
2023/03/02 14:51:29;;;;;;;6.10;4.43;;;;;;;;;;5088118;28;20706;-62
2023/03/02 14:53:58;;;;;;;6.95;4.70;;;;;;;;;;5090481;28;20020;-63
2023/03/02 14:56:23;;;;;;;8.48;4.95;;;;;;;;;;5090387;28;20028;-62
2023/03/02 14:58:50;;;;;;;6.07;4.40;;;;;;;;;;5090291;28;20024;-63
2023/03/02 15:01:16;;;;;;;6.00;4.65;;;;;;;;;;5090492;28;20099;-62